createdAt,value
2023-02-11T00:00:59.162Z,2.26
2023-02-11T00:03:29.180Z,2.24
2023-02-11T00:06:00.194Z,2.32
2023-02-11T00:08:31.592Z,2.27
2023-02-11T00:11:01.114Z,2.30
2023-02-11T00:13:31.040Z,2.32
2023-02-11T00:16:00.565Z,2.34
2023-02-11T00:18:30.489Z,2.36
2023-02-11T00:21:00.014Z,2.38
2023-02-11T00:23:29.911Z,2.34
2023-02-11T00:26:00.913Z,2.36
2023-02-11T00:28:32.375Z,2.37
2023-02-11T00:31:02.882Z,2.37
2023-02-11T00:33:32.829Z,2.38
2023-02-11T00:36:05.346Z,2.38
2023-02-11T00:38:35.665Z,2.39
2023-02-11T00:41:06.917Z,2.39
2023-02-11T00:43:37.073Z,2.42
2023-02-11T00:46:07.224Z,2.38
2023-02-11T00:48:37.596Z,2.40
2023-02-11T00:51:07.538Z,2.43
2023-02-11T00:53:37.745Z,2.41
2023-02-11T00:56:08.924Z,2.41
2023-02-11T00:58:39.612Z,2.43
2023-02-11T01:01:09.339Z,2.40
2023-02-11T01:03:40.415Z,2.40
2023-02-11T01:06:10.687Z,2.43
2023-02-11T01:08:41.391Z,2.49
2023-02-11T01:11:15.209Z,2.49
2023-02-11T01:13:48.405Z,2.45
2023-02-11T01:16:18.745Z,2.45
2023-02-11T01:18:48.691Z,2.45
2023-02-11T01:21:20.702Z,2.44
2023-02-11T01:23:51.881Z,2.49
2023-02-11T01:26:22.920Z,2.44
2023-02-11T01:28:53.342Z,2.49
2023-02-11T01:31:22.930Z,2.46
2023-02-11T01:33:52.833Z,2.46
2023-02-11T01:36:22.473Z,2.47
2023-02-11T01:38:52.451Z,2.43
2023-02-11T01:41:24.611Z,2.45
2023-02-11T01:43:54.559Z,2.44
2023-02-11T01:46:32.540Z,2.41
2023-02-11T01:49:04.848Z,2.43
2023-02-11T01:51:36.743Z,2.38
2023-02-11T01:54:25.290Z,2.32
2023-02-11T01:57:15.166Z,2.30
2023-02-11T01:59:48.311Z,2.27
2023-02-11T02:02:20.501Z,2.32
2023-02-11T02:04:54.003Z,2.29
2023-02-11T02:07:30.646Z,2.29
2023-02-11T02:10:01.999Z,2.24
2023-02-11T02:12:33.183Z,2.25
2023-02-11T02:15:21.437Z,2.29
2023-02-11T02:17:55.687Z,2.24
2023-02-11T02:20:53.032Z,2.15
2023-02-11T02:23:39.940Z,2.21
2023-02-11T02:26:21.367Z,2.19
2023-02-11T02:29:11.867Z,2.17
2023-02-11T02:31:53.682Z,2.17
2023-02-11T02:34:28.656Z,2.15
2023-02-11T02:37:03.617Z,2.11
2023-02-11T02:39:35.304Z,2.09
2023-02-11T02:42:05.916Z,2.13
2023-02-11T02:44:35.718Z,2.15
2023-02-11T02:47:05.613Z,2.16
2023-02-11T02:49:36.664Z,2.15
2023-02-11T02:52:12.275Z,2.19
2023-02-11T02:55:02.730Z,2.17
2023-02-11T02:57:34.440Z,2.17
2023-02-11T03:00:13.347Z,2.16
2023-02-11T03:02:51.669Z,2.15
2023-02-11T03:05:25.486Z,2.15
2023-02-11T03:07:59.574Z,2.20
2023-02-11T03:10:30.760Z,2.18
2023-02-11T03:13:01.451Z,2.26
2023-02-11T03:15:33.731Z,2.23
2023-02-11T03:18:05.011Z,2.21
2023-02-11T03:20:37.938Z,2.21
2023-02-11T03:23:13.405Z,2.21
2023-02-11T03:25:45.679Z,2.24
2023-02-11T03:28:17.724Z,2.25
2023-02-11T03:30:50.816Z,2.23
2023-02-11T03:33:25.708Z,2.27
2023-02-11T03:35:58.437Z,2.21
2023-02-11T03:38:31.829Z,2.22
2023-02-11T03:41:03.474Z,2.22
2023-02-11T03:43:36.058Z,2.23
2023-02-11T03:46:06.419Z,2.26
2023-02-11T03:48:41.348Z,2.22
2023-02-11T03:51:13.878Z,2.16
2023-02-11T03:53:45.798Z,2.19
2023-02-11T03:56:19.056Z,2.18
2023-02-11T03:58:50.048Z,2.08
2023-02-11T04:01:19.841Z,2.06
2023-02-11T04:03:51.352Z,2.05
2023-02-11T04:06:22.570Z,1.97
2023-02-11T04:08:52.470Z,1.98
2023-02-11T04:11:22.117Z,1.95
2023-02-11T04:13:52.158Z,1.98
2023-02-11T04:16:21.919Z,1.97
2023-02-11T04:18:51.959Z,2.02
2023-02-11T04:21:23.231Z,2.04
2023-02-11T04:23:53.148Z,2.00
2023-02-11T04:26:22.920Z,1.98
2023-02-11T04:28:53.540Z,1.97
2023-02-11T04:31:23.225Z,2.00
2023-02-11T04:33:53.311Z,2.08
2023-02-11T04:36:24.352Z,2.04
2023-02-11T04:38:54.515Z,2.02
2023-02-11T04:41:24.070Z,2.10
2023-02-11T04:43:53.890Z,2.05
2023-02-11T04:46:23.569Z,2.07
2023-02-11T04:48:53.570Z,2.10
2023-02-11T04:51:24.750Z,1.83
2023-02-11T04:53:54.798Z,2.12
2023-02-11T04:56:24.414Z,2.16
2023-02-11T04:58:54.586Z,2.21
2023-02-11T05:01:24.228Z,2.25
2023-02-11T05:03:54.383Z,2.28
2023-02-11T05:06:25.599Z,2.28
2023-02-11T05:08:55.620Z,2.33
2023-02-11T05:11:26.580Z,2.30
2023-02-11T05:13:56.466Z,2.30
2023-02-11T05:16:26.113Z,2.29
2023-02-11T05:18:56.099Z,2.38
2023-02-11T05:21:27.625Z,2.35
2023-02-11T05:23:57.523Z,2.41
2023-02-11T05:26:27.620Z,2.46
2023-02-11T05:28:58.099Z,2.48
2023-02-11T05:31:27.752Z,2.48
2023-02-11T05:33:57.908Z,2.46
2023-02-11T05:36:30.649Z,2.47
2023-02-11T05:39:02.209Z,2.46
2023-02-11T05:41:31.739Z,2.41
2023-02-11T05:44:01.918Z,2.50
2023-02-11T05:46:31.986Z,2.47
2023-02-11T05:49:02.049Z,2.48
2023-02-11T05:51:33.131Z,2.49
2023-02-11T05:54:03.928Z,2.52
2023-02-11T05:56:33.499Z,2.50
2023-02-11T05:59:03.429Z,2.59
2023-02-11T06:01:33.198Z,2.58
2023-02-11T06:04:03.078Z,2.54
2023-02-11T06:06:34.292Z,2.50
2023-02-11T06:09:04.343Z,2.57
2023-02-11T06:11:33.930Z,2.65
2023-02-11T06:14:03.908Z,2.76
2023-02-11T06:16:33.468Z,2.79
2023-02-11T06:19:03.519Z,2.86
2023-02-11T06:21:43.235Z,2.84
2023-02-11T06:24:17.475Z,2.83
2023-02-11T06:26:51.478Z,2.85
2023-02-11T06:29:21.478Z,2.95
2023-02-11T06:31:51.459Z,2.96
2023-02-11T06:34:21.589Z,3.01
2023-02-11T06:36:52.669Z,3.17
2023-02-11T06:39:22.821Z,3.19
2023-02-11T06:41:52.495Z,3.20
2023-02-11T06:44:22.520Z,3.12
2023-02-11T06:46:52.212Z,3.08
2023-02-11T06:49:22.541Z,3.12
2023-02-11T06:51:53.541Z,3.23
2023-02-11T06:54:23.608Z,3.18
2023-02-11T06:56:53.300Z,3.20
2023-02-11T06:59:23.292Z,3.24
2023-02-11T07:01:53.126Z,3.24
2023-02-11T07:04:23.188Z,3.32
2023-02-11T07:06:54.610Z,3.32
2023-02-11T07:09:25.035Z,3.34
2023-02-11T07:11:54.660Z,3.36
2023-02-11T07:14:24.802Z,3.41
2023-02-11T07:16:54.791Z,3.39
2023-02-11T07:19:25.312Z,3.36
2023-02-11T07:21:56.830Z,3.41
2023-02-11T07:24:27.179Z,3.41
2023-02-11T07:26:56.870Z,3.39
2023-02-11T07:29:27.166Z,3.40
2023-02-11T07:31:58.527Z,3.34
2023-02-11T07:34:28.665Z,3.35
2023-02-11T07:36:59.791Z,3.32
2023-02-11T07:39:29.972Z,3.37
2023-02-11T07:42:00.277Z,3.35
2023-02-11T07:44:31.451Z,3.37
2023-02-11T07:47:01.649Z,3.42
2023-02-11T07:49:31.779Z,3.48
2023-02-11T07:52:02.909Z,3.49
2023-02-11T07:54:32.908Z,3.53
2023-02-11T07:57:04.117Z,3.52
2023-02-11T07:59:34.440Z,3.60
2023-02-11T08:02:04.600Z,3.58
2023-02-11T08:04:34.849Z,3.56
2023-02-11T08:07:05.878Z,3.62
2023-02-11T08:09:36.530Z,3.63
2023-02-11T08:12:06.876Z,3.72
2023-02-11T08:14:37.337Z,3.74
2023-02-11T08:17:07.894Z,3.82
2023-02-11T08:19:37.818Z,3.88
2023-02-11T08:22:09.103Z,4.00
2023-02-11T08:24:39.596Z,4.00
2023-02-11T08:27:09.230Z,4.09
2023-02-11T08:29:39.205Z,4.12
2023-02-11T08:32:08.809Z,4.19
2023-02-11T08:34:38.985Z,4.15
2023-02-11T08:37:10.559Z,4.25
2023-02-11T08:39:40.474Z,4.22
2023-02-11T08:42:10.093Z,4.23
2023-02-11T08:44:40.113Z,4.28
2023-02-11T08:47:09.664Z,4.30
2023-02-11T08:49:41.759Z,4.33
2023-02-11T08:52:13.142Z,4.33
2023-02-11T08:54:43.453Z,4.38
2023-02-11T08:57:13.012Z,4.45
2023-02-11T08:59:43.058Z,4.53
2023-02-11T09:02:13.455Z,4.57
2023-02-11T09:04:43.303Z,4.60
2023-02-11T09:07:14.481Z,4.62
2023-02-11T09:09:44.400Z,4.68
2023-02-11T09:12:13.932Z,4.63
2023-02-11T09:14:44.057Z,4.79
2023-02-11T09:17:13.804Z,4.81
2023-02-11T09:19:43.733Z,4.84
2023-02-11T09:22:14.881Z,4.96
2023-02-11T09:24:44.944Z,4.90
2023-02-11T09:27:14.527Z,4.92
2023-02-11T09:29:44.575Z,5.01
2023-02-11T09:32:14.384Z,5.05
2023-02-11T09:34:44.506Z,5.17
2023-02-11T09:37:15.608Z,5.37
2023-02-11T09:39:46.470Z,5.28
2023-02-11T09:42:35.151Z,5.33
2023-02-11T09:45:06.279Z,5.39
2023-02-11T09:47:37.874Z,5.47
2023-02-11T09:50:08.796Z,5.46
2023-02-11T09:52:43.088Z,5.56
2023-02-11T09:55:18.840Z,5.49
2023-02-11T09:57:48.720Z,5.47
2023-02-11T10:00:23.359Z,5.50
2023-02-11T10:03:02.469Z,5.47
2023-02-11T10:05:43.960Z,5.40
2023-02-11T10:08:18.313Z,5.37
2023-02-11T10:10:52.615Z,5.56
2023-02-11T10:13:30.809Z,5.65
2023-02-11T10:16:06.026Z,5.68
2023-02-11T10:18:41.663Z,5.80
2023-02-11T10:21:16.730Z,6.05
2023-02-11T10:23:51.882Z,6.11
2023-02-11T10:26:22.086Z,6.26
2023-02-11T10:28:54.467Z,6.44
2023-02-11T10:31:27.536Z,6.29
2023-02-11T10:34:00.879Z,6.18
2023-02-11T10:36:32.309Z,6.13
2023-02-11T10:39:11.684Z,6.09
2023-02-11T10:41:45.110Z,6.09
2023-02-11T10:44:26.169Z,6.03
2023-02-11T10:46:57.533Z,5.98
2023-02-11T10:49:39.279Z,5.90
2023-02-11T10:52:16.905Z,5.81
2023-02-11T10:54:57.321Z,5.68
2023-02-11T10:57:30.449Z,5.56
2023-02-11T11:00:01.965Z,5.58
2023-02-11T11:02:34.801Z,5.49
2023-02-11T11:05:05.990Z,5.44
2023-02-11T11:07:36.349Z,5.43
2023-02-11T11:10:07.609Z,5.39
2023-02-11T11:12:48.297Z,5.43
2023-02-11T11:15:20.154Z,5.40
2023-02-11T11:17:51.073Z,5.43
2023-02-11T11:20:22.280Z,5.43
2023-02-11T11:22:54.503Z,5.37
2023-02-11T11:25:25.992Z,5.41
2023-02-11T11:27:59.000Z,5.41
2023-02-11T11:30:33.213Z,5.36
2023-02-11T11:33:03.516Z,5.41
2023-02-11T11:35:34.581Z,5.38
2023-02-11T11:38:05.579Z,5.39
2023-02-11T11:40:36.436Z,5.41
2023-02-11T11:43:23.125Z,5.41
2023-02-11T11:45:57.037Z,5.40
2023-02-11T11:48:29.025Z,5.41
2023-02-11T11:51:01.525Z,5.37
2023-02-11T11:53:37.917Z,5.44
2023-02-11T11:56:08.607Z,5.41
2023-02-11T11:58:40.459Z,5.43
2023-02-11T12:01:20.003Z,5.38
2023-02-11T12:04:13.892Z,5.34
2023-02-11T12:06:52.265Z,5.34
2023-02-11T12:09:28.486Z,5.36
2023-02-11T12:12:06.078Z,5.38
2023-02-11T12:14:43.112Z,5.46
2023-02-11T12:17:16.525Z,5.52
2023-02-11T12:20:02.917Z,5.59
2023-02-11T12:22:39.932Z,5.63
2023-02-11T12:25:27.289Z,5.79
2023-02-11T12:28:03.232Z,5.79
2023-02-11T12:31:06.156Z,5.76
2023-02-11T12:33:47.940Z,5.81
2023-02-11T12:36:24.541Z,5.88
2023-02-11T12:38:59.975Z,5.88
2023-02-11T12:41:57.004Z,5.95
2023-02-11T12:44:30.794Z,5.93
2023-02-11T12:47:10.474Z,5.96
2023-02-11T12:49:57.025Z,5.98
2023-02-11T12:52:31.354Z,6.04
2023-02-11T12:55:04.666Z,6.02
2023-02-11T12:57:36.993Z,6.11
2023-02-11T13:00:09.174Z,6.11
2023-02-11T13:02:44.754Z,6.18
2023-02-11T13:05:21.524Z,6.23
2023-02-11T13:07:53.345Z,6.19
2023-02-11T13:10:30.629Z,6.26
2023-02-11T13:13:19.608Z,6.20
2023-02-11T13:15:53.210Z,6.21
2023-02-11T13:18:29.056Z,6.25
2023-02-11T13:21:02.788Z,6.27
2023-02-11T13:23:38.396Z,6.37
2023-02-11T13:26:12.372Z,6.38
2023-02-11T13:28:46.600Z,6.32
2023-02-11T13:31:20.354Z,6.30
2023-02-11T13:33:52.978Z,6.36
2023-02-11T13:36:24.388Z,6.39
2023-02-11T13:39:04.617Z,6.44
2023-02-11T13:41:35.760Z,6.41
2023-02-11T13:44:08.176Z,6.39
2023-02-11T13:46:53.506Z,6.40
2023-02-11T13:49:26.514Z,6.45
2023-02-11T13:51:57.192Z,6.37
2023-02-11T13:54:29.055Z,6.36
2023-02-11T13:57:23.394Z,6.31
2023-02-11T13:59:54.089Z,6.32
2023-02-11T14:02:42.800Z,6.29
2023-02-11T14:05:50.568Z,6.29
2023-02-11T14:08:39.545Z,6.31
2023-02-11T14:11:13.059Z,6.30
2023-02-11T14:14:09.676Z,6.29
2023-02-11T14:16:59.729Z,6.31
2023-02-11T14:19:35.577Z,6.38
2023-02-11T14:22:08.177Z,6.39
2023-02-11T14:24:51.500Z,6.36
2023-02-11T14:27:29.850Z,6.32
2023-02-11T14:30:17.139Z,6.32
2023-02-11T14:32:53.598Z,6.37
2023-02-11T14:35:27.681Z,6.40
2023-02-11T14:38:03.818Z,6.34
2023-02-11T14:40:34.827Z,6.37
2023-02-11T14:43:09.317Z,6.31
2023-02-11T14:45:41.967Z,6.10
2023-02-11T14:48:16.787Z,6.31
2023-02-11T14:50:50.064Z,6.37
2023-02-11T14:53:23.542Z,6.36
2023-02-11T14:55:54.495Z,6.28
2023-02-11T14:58:25.773Z,6.35
2023-02-11T15:00:56.971Z,6.43
2023-02-11T15:03:35.349Z,6.37
2023-02-11T15:06:06.774Z,6.35
2023-02-11T15:08:39.749Z,6.31
2023-02-11T15:11:12.278Z,6.33
2023-02-11T15:13:47.715Z,6.35
2023-02-11T15:16:19.741Z,6.36
2023-02-11T15:18:52.949Z,6.34
2023-02-11T15:21:23.810Z,6.32
2023-02-11T15:24:00.109Z,6.18
2023-02-11T15:26:29.950Z,6.08
2023-02-11T15:29:00.044Z,5.95
2023-02-11T15:31:31.244Z,5.87
2023-02-11T15:34:08.775Z,5.82
2023-02-11T15:36:39.364Z,5.77
2023-02-11T15:39:32.240Z,5.74
2023-02-11T15:42:20.356Z,5.70
2023-02-11T15:44:56.481Z,5.69
2023-02-11T15:47:26.604Z,5.68
2023-02-11T15:49:58.840Z,5.76
2023-02-11T15:52:29.435Z,5.71
2023-02-11T15:55:02.664Z,5.67
2023-02-11T15:57:32.523Z,5.68
2023-02-11T16:00:07.472Z,5.74
2023-02-11T16:02:45.391Z,5.72
2023-02-11T16:05:29.914Z,5.71
2023-02-11T16:08:01.424Z,5.56
2023-02-11T16:10:33.996Z,5.54
2023-02-11T16:13:18.547Z,5.54
2023-02-11T16:15:51.282Z,5.40
2023-02-11T16:18:36.813Z,5.37
2023-02-11T16:21:08.432Z,5.36
2023-02-11T16:23:39.712Z,5.27
2023-02-11T16:26:13.974Z,5.21
2023-02-11T16:28:43.704Z,5.16
2023-02-11T16:31:14.082Z,5.12
2023-02-11T16:33:43.842Z,5.08
2023-02-11T16:36:15.443Z,5.02
2023-02-11T16:38:45.284Z,4.99
2023-02-11T16:41:18.145Z,5.06
2023-02-11T16:43:48.000Z,5.07
2023-02-11T16:46:18.245Z,5.01
2023-02-11T16:48:48.053Z,5.06
2023-02-11T16:51:18.312Z,5.01
2023-02-11T16:53:48.022Z,4.84
2023-02-11T16:56:20.131Z,4.68
2023-02-11T16:58:50.913Z,4.51
2023-02-11T17:01:21.195Z,4.43
2023-02-11T17:03:51.640Z,4.35
2023-02-11T17:06:21.690Z,4.33
2023-02-11T17:08:51.448Z,4.33
2023-02-11T17:11:23.497Z,4.22
2023-02-11T17:13:53.237Z,4.14
2023-02-11T17:16:25.429Z,4.02
2023-02-11T17:18:55.366Z,3.92
2023-02-11T17:21:29.858Z,3.85
2023-02-11T17:23:59.958Z,3.78
2023-02-11T17:26:32.766Z,3.68
2023-02-11T17:29:02.774Z,3.59
2023-02-11T17:31:33.259Z,3.49
2023-02-11T17:34:03.126Z,3.46
2023-02-11T17:36:33.759Z,3.55
2023-02-11T17:39:06.387Z,3.36
2023-02-11T17:41:40.068Z,3.24
2023-02-11T17:44:12.892Z,3.12
2023-02-11T17:46:43.093Z,3.05
2023-02-11T17:49:13.168Z,2.95
2023-02-11T17:51:43.296Z,2.93
2023-02-11T17:54:13.978Z,2.82
2023-02-11T17:56:46.052Z,2.76
2023-02-11T17:59:15.903Z,2.68
2023-02-11T18:01:46.052Z,2.67
2023-02-11T18:04:16.554Z,2.62
2023-02-11T18:06:47.331Z,2.59
2023-02-11T18:09:17.207Z,2.55
2023-02-11T18:11:52.698Z,2.52
2023-02-11T18:14:22.926Z,2.53
2023-02-11T18:16:53.453Z,2.52
2023-02-11T18:19:25.195Z,2.47
2023-02-11T18:21:55.379Z,2.47
2023-02-11T18:24:25.076Z,2.48
2023-02-11T18:26:56.555Z,2.44
2023-02-11T18:29:26.737Z,2.41
2023-02-11T18:31:58.344Z,2.46
2023-02-11T18:34:28.218Z,2.36
2023-02-11T18:36:58.669Z,2.34
2023-02-11T18:39:29.239Z,2.33
2023-02-11T18:42:01.379Z,2.31
2023-02-11T18:44:31.333Z,2.26
2023-02-11T18:47:01.722Z,2.25
2023-02-11T18:49:31.744Z,2.21
2023-02-11T18:52:02.391Z,2.23
2023-02-11T18:54:32.155Z,2.20
2023-02-11T18:57:04.166Z,2.20
2023-02-11T18:59:34.038Z,2.21
2023-02-11T19:02:04.462Z,2.19
2023-02-11T19:04:34.413Z,2.24
2023-02-11T19:07:04.920Z,2.23
2023-02-11T19:09:34.823Z,2.20
2023-02-11T19:12:08.350Z,2.22
2023-02-11T19:14:38.889Z,2.20
2023-02-11T19:17:11.056Z,2.19
2023-02-11T19:19:41.308Z,2.18
2023-02-11T19:22:12.102Z,2.20
2023-02-11T19:24:42.102Z,2.14
2023-02-11T19:27:15.017Z,2.13
2023-02-11T19:29:44.898Z,2.14
2023-02-11T19:32:16.111Z,2.12
2023-02-11T19:34:45.803Z,2.11
2023-02-11T19:37:16.217Z,2.08
2023-02-11T19:39:46.091Z,2.08
2023-02-11T19:42:17.731Z,2.07
2023-02-11T19:44:47.397Z,2.07
2023-02-11T19:47:18.271Z,2.03
2023-02-11T19:49:48.059Z,2.00
2023-02-11T19:52:18.459Z,1.99
2023-02-11T19:54:48.218Z,1.55
2023-02-11T19:57:19.760Z,1.81
2023-02-11T19:59:49.566Z,1.78
2023-02-11T20:02:19.820Z,1.78
2023-02-11T20:04:49.704Z,1.80
2023-02-11T20:07:20.078Z,1.89
2023-02-11T20:09:50.060Z,1.87
2023-02-11T20:12:21.851Z,1.88
2023-02-11T20:14:51.615Z,1.89
2023-02-11T20:17:21.927Z,1.87
2023-02-11T20:19:51.601Z,1.86
2023-02-11T20:22:21.865Z,1.81
2023-02-11T20:24:51.895Z,1.79
2023-02-11T20:27:24.336Z,1.80
2023-02-11T20:29:54.237Z,1.84
2023-02-11T20:32:24.286Z,1.83
2023-02-11T20:34:54.210Z,1.77
2023-02-11T20:37:24.415Z,1.79
2023-02-11T20:39:55.154Z,1.78
2023-02-11T20:42:27.045Z,1.79
2023-02-11T20:44:56.652Z,1.79
2023-02-11T20:47:26.715Z,1.80
2023-02-11T20:49:56.617Z,1.78
2023-02-11T20:52:26.794Z,1.77
2023-02-11T20:54:56.290Z,1.77
2023-02-11T20:57:29.027Z,1.76
2023-02-11T20:59:59.342Z,1.73
2023-02-11T21:02:31.839Z,1.76
2023-02-11T21:05:01.884Z,1.77
2023-02-11T21:07:32.236Z,1.84
2023-02-11T21:10:02.321Z,1.81
2023-02-11T21:12:34.068Z,1.81
2023-02-11T21:15:05.791Z,1.80
2023-02-11T21:17:36.082Z,1.82
2023-02-11T21:20:09.295Z,1.80
2023-02-11T21:22:41.510Z,1.79
2023-02-11T21:25:14.070Z,1.76
2023-02-11T21:27:49.178Z,1.72
2023-02-11T21:30:22.390Z,1.70
2023-02-11T21:32:54.397Z,1.71
2023-02-11T21:35:24.802Z,1.72
2023-02-11T21:37:55.001Z,1.73
2023-02-11T21:40:27.692Z,1.70
2023-02-11T21:43:00.432Z,1.69
2023-02-11T21:45:32.408Z,1.66
2023-02-11T21:48:02.841Z,1.64
2023-02-11T21:50:32.729Z,1.67
2023-02-11T21:53:05.323Z,1.67
2023-02-11T21:55:37.419Z,1.67
2023-02-11T21:58:09.003Z,1.68
2023-02-11T22:00:38.792Z,1.66
2023-02-11T22:03:09.210Z,1.62
2023-02-11T22:05:41.246Z,1.61
2023-02-11T22:08:11.156Z,1.57
2023-02-11T22:10:40.791Z,1.55
2023-02-11T22:13:12.174Z,1.55
2023-02-11T22:15:41.854Z,1.55
2023-02-11T22:18:14.185Z,1.56
2023-02-11T22:20:46.904Z,1.57
2023-02-11T22:23:20.708Z,1.59
2023-02-11T22:25:53.924Z,1.55
2023-02-11T22:28:29.265Z,1.51
2023-02-11T22:31:04.929Z,1.52
2023-02-11T22:33:36.113Z,1.53
2023-02-11T22:36:07.487Z,1.54
2023-02-11T22:38:37.574Z,1.53
2023-02-11T22:41:08.501Z,1.53
2023-02-11T22:43:40.676Z,1.55
2023-02-11T22:46:12.432Z,1.54
2023-02-11T22:48:42.523Z,1.50
2023-02-11T22:51:13.689Z,1.44
2023-02-11T22:53:44.850Z,1.40
2023-02-11T22:56:15.911Z,1.45
2023-02-11T22:58:47.874Z,1.45
2023-02-11T23:01:18.574Z,1.44
2023-02-11T23:03:49.085Z,1.46
2023-02-11T23:06:19.177Z,1.44
2023-02-11T23:08:50.164Z,1.40
2023-02-11T23:11:21.705Z,1.40
2023-02-11T23:13:53.755Z,1.39
2023-02-11T23:16:25.056Z,1.35
2023-02-11T23:18:55.867Z,1.35
2023-02-11T23:21:28.708Z,1.31
2023-02-11T23:24:00.754Z,1.30
2023-02-11T23:26:31.051Z,1.31
2023-02-11T23:29:03.096Z,1.31
2023-02-11T23:31:34.919Z,1.32
2023-02-11T23:34:05.794Z,1.30
2023-02-11T23:36:35.954Z,1.27
2023-02-11T23:39:07.573Z,1.29
2023-02-11T23:41:37.401Z,1.21
2023-02-11T23:44:09.460Z,1.21
2023-02-11T23:46:39.707Z,1.25
2023-02-11T23:49:10.264Z,1.22
2023-02-11T23:51:40.002Z,1.23
2023-02-11T23:54:12.120Z,1.24
2023-02-11T23:56:42.706Z,1.25
2023-02-11T23:59:14.488Z,1.25
